Showell, Maryland
Current Conditions -  °F | °C
As of 11:53 PM on Saturday 22 Nov 2014 (Local Time) from KOXB Reporting Station
Clear Clear  
Wind Chill: 34°   Ceiling: Unl
Heat Index: 38°   Visibility: 10mi
Dew Point: 24°   Wind: 5mph
Humidity: 57%   Direction: 230°SW
Pressure: 30.31"   Gusts: NA
Location:  38.4°N, 75.22°W
Report Text: KOXB 230453Z AUTO 23004KT 10SM CLR 03/M04 A3031 RMK AO2 SLP263 T00331044 400781089 TSNO
Loading
Personal Weather Stations






























Interactive Weather Map New forecast layout! Learn more

10-Day Weather Forecast

Advertisements
Track Severe Weather on mobile